Time;durP1;ratioP1;P1;durP2;ratioP2;P2;SDS_P1;SDS_P2;PMS_P1;PMS_P2;Temp;Humidity;BMP_temperature;BMP_pressure;BME280_temperature;BME280_humidity;BME280_pressure;Samples;Min_cycle;Max_cycle;Signal;HPM_P1;HPM_P2
2023/10/29 00:01:15;;;;;;;7.13;5.30;;;;;;;11.83;66.24;95042.63;5045750;28;20167;-69
2023/10/29 00:03:40;;;;;;;9.03;6.37;;;;;;;11.99;66.00;95046.81;5046076;28;20183;-68
2023/10/29 00:06:06;;;;;;;6.40;5.70;;;;;;;11.94;65.56;95027.91;5045420;28;20195;-68
2023/10/29 00:08:31;;;;;;;10.40;6.13;;;;;;;11.74;65.60;95038.03;5045596;28;20182;-68
2023/10/29 00:10:57;;;;;;;8.77;5.50;;;;;;;11.92;65.18;95054.31;5045736;28;20305;-70
2023/10/29 00:13:25;;;;;;;7.37;5.80;;;;;;;11.95;65.08;95051.47;5045494;28;20174;-69
2023/10/29 00:15:50;;;;;;;6.77;5.43;;;;;;;11.87;65.81;95040.66;5045087;28;20203;-69
2023/10/29 00:18:16;;;;;;;8.73;5.37;;;;;;;11.67;66.32;95044.66;5045980;28;20413;-69
2023/10/29 00:20:42;;;;;;;6.53;5.00;;;;;;;11.84;66.58;95039.03;5045737;28;20277;-69
2023/10/29 00:23:07;;;;;;;8.13;5.30;;;;;;;11.87;65.85;95030.13;5047330;28;20418;-69
2023/10/29 00:25:33;;;;;;;13.23;5.40;;;;;;;11.97;66.01;95023.25;5049156;28;20163;-69
2023/10/29 00:27:58;;;;;;;9.47;5.57;;;;;;;11.97;64.89;95035.56;5049274;28;20211;-69
2023/10/29 00:30:23;;;;;;;6.27;5.13;;;;;;;12.06;64.76;95012.09;5049045;28;20202;-69
2023/10/29 00:32:49;;;;;;;10.80;5.40;;;;;;;11.86;65.75;95024.00;5040422;28;20176;-69
2023/10/29 00:35:14;;;;;;;9.43;5.80;;;;;;;11.99;65.87;95031.88;5029080;28;20664;-69
2023/10/29 00:37:39;;;;;;;10.23;6.00;;;;;;;12.05;64.74;95026.19;5029101;28;20254;-69
2023/10/29 00:40:05;;;;;;;7.97;5.57;;;;;;;11.85;65.81;95017.06;5029006;28;20174;-68
2023/10/29 00:42:31;;;;;;;6.93;4.90;;;;;;;11.31;67.50;95008.63;5028863;28;20570;-69
2023/10/29 00:44:57;;;;;;;4.63;4.23;;;;;;;11.05;68.66;95007.78;5028655;28;20437;-69
2023/10/29 00:47:22;;;;;;;6.70;5.40;;;;;;;11.39;68.34;95019.47;5028704;28;20196;-69
2023/10/29 00:49:48;;;;;;;12.43;5.60;;;;;;;11.63;67.71;95014.28;5029036;28;20713;-68
2023/10/29 00:52:14;;;;;;;7.77;6.00;;;;;;;11.62;67.04;95010.81;5028919;28;20172;-68
2023/10/29 00:54:40;;;;;;;6.30;4.93;;;;;;;11.68;66.70;95024.47;5027704;28;20183;-69
2023/10/29 00:57:07;;;;;;;17.80;6.53;;;;;;;11.72;66.55;95020.69;5028869;28;20450;-69
2023/10/29 00:59:34;;;;;;;8.40;5.17;;;;;;;11.81;66.46;95022.63;5029283;28;20210;-69
2023/10/29 01:01:59;;;;;;;8.40;5.40;;;;;;;11.65;67.52;95009.75;5029211;28;20433;-69
2023/10/29 01:04:25;;;;;;;8.37;6.10;;;;;;;11.08;69.65;94997.94;5028997;28;20794;-69
2023/10/29 01:06:51;;;;;;;10.17;5.67;;;;;;;11.44;67.98;95010.31;5028790;28;20195;-68
2023/10/29 01:09:17;;;;;;;9.13;5.77;;;;;;;11.66;67.41;95004.38;5028557;28;20176;-69
2023/10/29 01:11:43;;;;;;;7.30;6.03;;;;;;;11.16;68.85;94998.25;5028632;28;20411;-68
2023/10/29 01:14:08;;;;;;;7.57;5.50;;;;;;;11.46;67.97;95031.22;5028433;28;20505;-68
2023/10/29 01:16:34;;;;;;;9.10;6.37;;;;;;;11.70;67.12;95018.16;5028575;28;20214;-68
2023/10/29 01:18:59;;;;;;;7.87;6.23;;;;;;;11.55;68.17;95011.34;5028640;28;20266;-69
2023/10/29 01:21:27;;;;;;;9.20;6.27;;;;;;;11.79;67.27;95035.06;5028372;28;20198;-69
2023/10/29 01:23:53;;;;;;;10.97;6.90;;;;;;;11.48;68.02;95016.19;5028163;28;20810;-67
2023/10/29 01:26:18;;;;;;;6.77;5.50;;;;;;;10.93;70.07;95017.34;5028205;28;20456;-68
2023/10/29 01:28:44;;;;;;;10.07;6.53;;;;;;;11.29;68.98;95021.03;5028207;28;20259;-69
2023/10/29 01:31:10;;;;;;;6.80;5.13;;;;;;;11.32;68.50;95020.84;5028318;28;20206;-69
2023/10/29 01:33:36;;;;;;;12.03;6.63;;;;;;;11.03;69.99;95018.38;5043018;28;20919;-69
2023/10/29 01:36:02;;;;;;;8.20;6.43;;;;;;;11.10;69.53;95024.06;5047517;28;20212;-69
2023/10/29 01:38:27;;;;;;;6.63;5.67;;;;;;;11.23;69.59;95031.00;5048151;28;20901;-69
2023/10/29 01:40:52;;;;;;;20.23;6.03;;;;;;;11.35;68.33;95023.25;5047963;28;20674;-68
2023/10/29 01:43:18;;;;;;;12.93;6.10;;;;;;;11.53;68.35;95010.63;5047953;28;20174;-69
2023/10/29 01:45:43;;;;;;;8.60;5.23;;;;;;;11.35;68.62;95012.75;5048069;28;20171;-69
2023/10/29 01:48:09;;;;;;;7.50;5.23;;;;;;;11.39;68.22;95012.41;5051433;28;20600;-68
2023/10/29 01:50:36;;;;;;;9.17;5.10;;;;;;;11.22;68.84;95010.97;5047795;28;20171;-68
2023/10/29 01:53:01;;;;;;;10.20;4.90;;;;;;;11.28;69.11;95003.59;5047658;28;20183;-69
2023/10/29 01:55:27;;;;;;;11.03;5.30;;;;;;;10.89;69.81;95000.97;5047505;28;20449;-69
2023/10/29 01:57:52;;;;;;;8.90;5.33;;;;;;;10.81;70.77;94993.59;5047493;28;20222;-69
2023/10/29 02:00:19;;;;;;;6.10;5.00;;;;;;;10.83;70.17;95001.38;5047825;28;20219;-68
2023/10/29 02:02:46;;;;;;;12.70;6.23;;;;;;;10.90;70.23;94993.94;5047644;28;20202;-68
2023/10/29 02:05:12;;;;;;;10.10;5.43;;;;;;;10.99;69.61;94996.78;5047098;28;20504;-68
2023/10/29 02:07:37;;;;;;;8.90;5.47;;;;;;;11.01;69.71;94983.56;5047639;28;20886;-69
2023/10/29 02:10:03;;;;;;;7.90;4.60;;;;;;;10.77;70.62;94983.41;5047778;28;20178;-69
2023/10/29 02:12:28;;;;;;;8.07;6.03;;;;;;;10.54;71.15;94974.47;5047189;28;20885;-69
2023/10/29 02:14:53;;;;;;;6.40;4.77;;;;;;;10.45;71.63;94972.47;5046571;28;20243;-68
2023/10/29 02:17:19;;;;;;;6.80;5.10;;;;;;;10.07;73.11;94970.53;5047091;28;20234;-68
2023/10/29 02:19:44;;;;;;;6.27;5.70;;;;;;;10.43;71.72;94975.19;5046914;28;20262;-68
2023/10/29 02:22:10;;;;;;;8.20;5.03;;;;;;;10.72;70.75;94970.59;5046997;28;20214;-68
2023/10/29 02:24:35;;;;;;;7.20;4.43;;;;;;;10.76;70.23;94977.31;5046643;28;20170;-68
2023/10/29 02:27:00;;;;;;;6.37;4.70;;;;;;;10.92;69.30;94973.69;5046697;28;20248;-69
2023/10/29 02:29:26;;;;;;;9.43;6.13;;;;;;;10.84;69.51;94975.97;5046935;28;20174;-68
2023/10/29 02:31:51;;;;;;;9.27;4.53;;;;;;;10.82;69.42;94973.47;5046185;28;20555;-69
2023/10/29 02:34:17;;;;;;;5.90;4.80;;;;;;;10.88;69.78;94969.56;5026882;28;20179;-68
2023/10/29 02:36:42;;;;;;;7.43;4.80;;;;;;;10.77;70.39;94972.91;5027092;28;20276;-68
2023/10/29 02:39:07;;;;;;;6.40;4.20;;;;;;;10.80;70.48;94956.97;5027077;28;20179;-68
2023/10/29 02:41:33;;;;;;;7.30;5.40;;;;;;;10.63;70.91;94966.00;5027170;28;21084;-68
2023/10/29 02:43:58;;;;;;;5.60;4.97;;;;;;;10.70;70.20;94958.53;5026875;28;20175;-68
2023/10/29 02:46:24;;;;;;;10.90;4.67;;;;;;;10.63;71.04;94954.63;5026643;28;20230;-68
2023/10/29 02:48:50;;;;;;;8.30;4.90;;;;;;;10.41;71.23;94955.25;5026810;28;20202;-69
2023/10/29 02:51:15;;;;;;;6.10;5.23;;;;;;;10.54;70.89;94958.75;5026673;28;20949;-69
2023/10/29 02:53:41;;;;;;;6.13;5.53;;;;;;;10.23;72.09;94952.88;5026639;28;20224;-68
2023/10/29 02:56:07;;;;;;;5.73;5.13;;;;;;;10.16;72.15;94952.44;5026068;28;20203;-68
2023/10/29 02:58:32;;;;;;;11.50;5.40;;;;;;;10.31;71.61;94955.84;5026613;28;20422;-69
2023/10/29 03:01:08;;;;;;;8.90;5.20;;;;;;;10.54;70.76;94961.38;5026586;28;20775;-68
2023/10/29 03:03:37;;;;;;;9.10;5.30;;;;;;;10.41;70.85;94955.25;5026480;28;20210;-68
2023/10/29 03:06:04;;;;;;;6.77;4.90;;;;;;;10.22;72.39;94950.34;5026282;28;20513;-68
2023/10/29 03:08:30;;;;;;;8.90;5.37;;;;;;;10.48;70.96;94948.66;5026507;28;20416;-68
2023/10/29 03:10:56;;;;;;;7.10;4.80;;;;;;;10.37;71.49;94949.38;5026443;28;20410;-68
2023/10/29 03:13:21;;;;;;;9.20;5.00;;;;;;;10.52;70.86;94934.41;5026471;28;20210;-68
2023/10/29 03:15:47;;;;;;;6.27;4.73;;;;;;;10.54;70.67;94935.13;5026116;28;20203;-69
2023/10/29 03:18:13;;;;;;;4.30;3.90;;;;;;;10.40;71.14;94928.19;5026581;28;20179;-69
2023/10/29 03:20:39;;;;;;;3.77;3.47;;;;;;;10.42;71.22;94936.78;5025284;28;20210;-68
2023/10/29 03:23:05;;;;;;;5.07;4.03;;;;;;;10.50;70.95;94934.47;5026240;28;20446;-68
2023/10/29 03:25:30;;;;;;;4.03;3.63;;;;;;;10.12;71.22;94926.53;5025974;28;20497;-68
2023/10/29 03:27:56;;;;;;;6.07;4.20;;;;;;;9.79;73.30;94929.56;5026344;28;20253;-68
2023/10/29 03:30:21;;;;;;;4.93;4.23;;;;;;;10.02;72.11;94928.06;5026161;28;20806;-68
2023/10/29 03:32:47;;;;;;;4.23;3.40;;;;;;;10.26;71.40;94923.81;5034528;28;20174;-68
2023/10/29 03:35:12;;;;;;;4.57;3.80;;;;;;;10.26;70.88;94913.34;5045664;28;20585;-68
2023/10/29 03:37:38;;;;;;;6.77;3.77;;;;;;;10.34;70.73;94915.47;5046019;28;20198;-68
2023/10/29 03:40:06;;;;;;;4.20;3.73;;;;;;;10.07;71.06;94905.00;5046337;28;20211;-68
2023/10/29 03:42:31;;;;;;;5.97;3.20;;;;;;;10.08;71.91;94927.66;5046422;28;20186;-68
2023/10/29 03:44:58;;;;;;;8.73;4.40;;;;;;;10.06;71.72;94919.03;5046077;28;20952;-68
2023/10/29 03:47:23;;;;;;;7.23;4.00;;;;;;;9.86;72.33;94913.34;5046092;28;20715;-69
2023/10/29 03:49:48;;;;;;;6.90;4.10;;;;;;;9.96;71.56;94908.31;5045980;28;20413;-69
2023/10/29 03:52:14;;;;;;;7.33;3.73;;;;;;;9.92;71.81;94910.31;5046182;28;20179;-69
2023/10/29 03:54:39;;;;;;;6.60;4.20;;;;;;;9.97;71.75;94910.03;5045779;28;20294;-69
2023/10/29 03:57:05;;;;;;;5.40;4.10;;;;;;;9.65;72.73;94891.16;5045602;28;20234;-70
2023/10/29 03:59:30;;;;;;;5.37;4.03;;;;;;;9.33;73.58;94894.88;5049506;28;20210;-69
2023/10/29 04:01:55;;;;;;;7.00;3.80;;;;;;;9.68;72.46;94907.47;5049759;28;20207;-68
2023/10/29 04:04:21;;;;;;;5.53;4.17;;;;;;;9.83;71.87;94913.53;5049524;28;20182;-68
2023/10/29 04:06:46;;;;;;;8.97;4.37;;;;;;;9.89;71.52;94922.78;5049611;28;20191;-69
2023/10/29 04:09:12;;;;;;;4.60;3.97;;;;;;;9.87;72.01;94933.34;5049426;28;20179;-68
2023/10/29 04:11:37;;;;;;;11.70;6.20;;;;;;;9.81;72.62;94939.00;5049516;28;20270;-68
2023/10/29 04:14:03;;;;;;;8.67;5.47;;;;;;;9.96;72.07;94940.59;5049703;28;20175;-68
2023/10/29 04:16:28;;;;;;;13.60;6.30;;;;;;;10.03;71.45;94948.09;5049552;28;20214;-68
2023/10/29 04:18:54;;;;;;;4.50;3.60;;;;;;;9.95;71.80;94938.09;5049822;28;20249;-68
2023/10/29 04:21:19;;;;;;;7.10;4.23;;;;;;;9.94;71.79;94936.41;5049459;28;20210;-68
2023/10/29 04:23:44;;;;;;;6.80;3.93;;;;;;;9.92;71.93;94941.75;5049523;28;20269;-67
2023/10/29 04:26:10;;;;;;;4.03;3.47;;;;;;;9.81;71.59;94933.75;5049835;28;20186;-68
2023/10/29 04:28:36;;;;;;;8.63;3.70;;;;;;;9.98;71.36;94935.28;5049497;28;20174;-69
2023/10/29 04:31:02;;;;;;;5.33;4.20;;;;;;;10.05;70.21;94943.59;5049310;28;20178;-68
2023/10/29 04:33:27;;;;;;;12.57;3.73;;;;;;;9.92;70.92;94935.66;5035701;28;20778;-69
2023/10/29 04:35:53;;;;;;;6.37;3.77;;;;;;;10.14;69.70;94927.25;5032406;28;20658;-68
2023/10/29 04:38:19;;;;;;;6.97;3.77;;;;;;;10.07;70.09;94933.84;5029296;28;20249;-68
2023/10/29 04:40:45;;;;;;;6.83;3.77;;;;;;;10.07;69.52;94928.59;5029326;28;20222;-68
2023/10/29 04:43:10;;;;;;;12.40;4.60;;;;;;;10.07;69.85;94936.47;5029164;28;20182;-68
2023/10/29 04:45:36;;;;;;;8.97;5.27;;;;;;;10.02;69.85;94933.31;5028999;28;20414;-68
2023/10/29 04:48:01;;;;;;;6.00;3.77;;;;;;;10.15;69.02;94934.16;5029409;28;20167;-68
2023/10/29 04:50:30;;;;;;;8.17;3.60;;;;;;;10.06;69.50;94934.78;5029088;28;20807;-69
2023/10/29 04:52:55;;;;;;;4.00;3.40;;;;;;;9.98;70.12;94935.28;5028860;28;20752;-68
2023/10/29 04:55:21;;;;;;;5.37;3.73;;;;;;;9.99;69.56;94938.72;5028717;28;20461;-69
2023/10/29 04:57:46;;;;;;;5.37;3.53;;;;;;;10.03;69.37;94951.53;5028685;28;20317;-69
2023/10/29 05:00:12;;;;;;;3.60;3.17;;;;;;;10.02;69.18;94938.56;5029033;28;20176;-69
2023/10/29 05:02:37;;;;;;;6.43;3.13;;;;;;;10.08;68.79;94935.50;5029113;28;20423;-69
2023/10/29 05:05:03;;;;;;;6.50;3.87;;;;;;;9.99;68.90;94952.66;5028658;28;20188;-69
2023/10/29 05:07:29;;;;;;;4.20;3.27;;;;;;;9.98;69.17;94919.56;5028948;28;21034;-69
2023/10/29 05:09:54;;;;;;;4.73;3.20;;;;;;;9.89;69.09;94931.47;5028453;28;20410;-68
2023/10/29 05:12:19;;;;;;;4.73;3.83;;;;;;;9.48;70.14;94921.03;5028484;28;20210;-69
2023/10/29 05:14:46;;;;;;;8.13;3.30;;;;;;;9.36;71.31;94935.72;5028414;28;20186;-68
2023/10/29 05:17:11;;;;;;;4.90;3.50;;;;;;;9.49;70.52;94934.00;5028399;28;20621;-68
2023/10/29 05:19:39;;;;;;;5.80;3.27;;;;;;;9.60;70.34;94927.28;5028355;28;20430;-67
2023/10/29 05:22:04;;;;;;;5.60;3.87;;;;;;;9.67;69.87;94918.91;5028321;28;20643;-69
2023/10/29 05:24:30;;;;;;;5.50;3.37;;;;;;;9.57;70.37;94917.84;5028315;28;20422;-69
2023/10/29 05:26:55;;;;;;;4.03;3.03;;;;;;;9.62;69.69;94918.38;5028464;28;20187;-68
2023/10/29 05:29:21;;;;;;;4.40;3.40;;;;;;;9.56;69.73;94907.44;5028258;28;20609;-68
2023/10/29 05:31:47;;;;;;;4.03;3.00;;;;;;;9.51;69.77;94905.94;5028110;28;20211;-69
2023/10/29 05:34:14;;;;;;;3.70;3.40;;;;;;;9.60;69.55;94899.28;5048002;28;20997;-69
2023/10/29 05:36:39;;;;;;;11.87;3.47;;;;;;;9.50;69.94;94896.44;5047653;28;20693;-68
2023/10/29 05:39:06;;;;;;;4.33;3.23;;;;;;;9.49;69.97;94888.66;5047860;28;20428;-68
2023/10/29 05:41:32;;;;;;;10.67;3.43;;;;;;;9.61;69.58;94887.03;5047711;28;20685;-69
2023/10/29 05:43:57;;;;;;;10.60;4.27;;;;;;;9.67;69.29;94886.66;5047608;28;20425;-67
2023/10/29 05:46:23;;;;;;;18.70;4.80;;;;;;;9.65;69.12;94889.34;5047716;28;20195;-69
2023/10/29 05:48:49;;;;;;;15.30;4.37;;;;;;;9.21;70.34;94902.66;5047935;28;20213;-68
2023/10/29 05:51:21;;;;;;;5.83;3.60;;;;;;;9.34;70.59;94903.56;5047709;28;20179;-68
2023/10/29 05:53:49;;;;;;;5.70;3.63;;;;;;;9.25;70.09;94904.16;5047562;28;20405;-68
2023/10/29 05:56:17;;;;;;;7.27;3.80;;;;;;;9.09;71.40;94906.88;5047776;28;20464;-69
2023/10/29 05:58:43;;;;;;;10.27;6.80;;;;;;;9.04;70.55;94907.16;5047665;28;20517;-69
2023/10/29 06:01:10;;;;;;;7.77;3.67;;;;;;;9.10;71.10;94909.41;5048024;28;21078;-68
2023/10/29 06:03:35;;;;;;;3.90;3.50;;;;;;;8.99;71.29;94922.28;5047832;28;20239;-67
2023/10/29 06:06:01;;;;;;;7.93;4.07;;;;;;;9.23;70.77;94924.34;5047878;28;20563;-68
2023/10/29 06:08:26;;;;;;;4.83;3.73;;;;;;;9.22;70.51;94926.13;5048020;28;20620;-68
2023/10/29 06:10:52;;;;;;;10.50;3.57;;;;;;;9.38;69.75;94930.38;5047677;28;20309;-68
2023/10/29 06:13:17;;;;;;;5.00;3.90;;;;;;;9.40;70.02;94916.28;5047486;28;20170;-68
2023/10/29 06:15:42;;;;;;;5.60;4.70;;;;;;;9.58;69.15;94923.91;5046849;28;20268;-68
2023/10/29 06:18:08;;;;;;;9.17;4.20;;;;;;;9.54;69.37;94918.00;5047182;28;20876;-68
2023/10/29 06:20:34;;;;;;;5.40;3.27;;;;;;;9.50;69.46;94924.41;5046416;28;20179;-68
2023/10/29 06:22:59;;;;;;;6.70;3.53;;;;;;;9.47;69.52;94919.34;5045840;28;20586;-68
2023/10/29 06:25:26;;;;;;;5.70;3.33;;;;;;;9.38;69.76;94933.88;5046954;28;20189;-68
2023/10/29 06:27:51;;;;;;;3.97;3.43;;;;;;;9.46;69.90;94917.66;5047175;28;20251;-68
2023/10/29 06:30:17;;;;;;;4.67;3.93;;;;;;;9.92;68.51;94936.53;5047179;28;21044;-67
2023/10/29 06:32:42;;;;;;;5.07;3.47;;;;;;;10.27;66.74;94935.13;5039499;28;20598;-67
2023/10/29 06:35:08;;;;;;;5.53;3.43;;;;;;;9.93;67.60;94932.94;5027065;28;20183;-67
2023/10/29 06:37:34;;;;;;;6.80;3.73;;;;;;;10.91;64.60;94937.88;5027640;28;20195;-68
2023/10/29 06:40:00;;;;;;;8.63;4.17;;;;;;;10.77;64.43;94937.03;5027643;28;20210;-68
2023/10/29 06:42:25;;;;;;;10.07;5.27;;;;;;;10.38;65.54;94951.03;5027536;28;20203;-67
2023/10/29 06:44:50;;;;;;;23.67;4.50;;;;;;;10.15;66.04;94937.63;5027207;28;20191;-68
2023/10/29 06:47:16;;;;;;;9.43;4.17;;;;;;;10.00;66.49;94936.03;5027348;28;20325;-68
2023/10/29 06:49:42;;;;;;;14.83;4.40;;;;;;;9.92;66.80;94943.53;5026891;28;20217;-67
2023/10/29 06:52:07;;;;;;;7.17;4.87;;;;;;;9.89;66.86;94936.69;5027409;28;20176;-68
2023/10/29 06:54:34;;;;;;;6.40;4.63;;;;;;;9.78;67.21;94941.81;5026716;28;20172;-68
2023/10/29 06:56:59;;;;;;;8.03;5.77;;;;;;;10.07;66.41;94954.81;5026885;28;20389;-68
2023/10/29 06:59:25;;;;;;;17.67;5.23;;;;;;;10.02;66.47;94954.28;5027022;28;20441;-68
2023/10/29 07:01:50;;;;;;;9.20;4.30;;;;;;;10.16;66.25;94956.84;5026905;28;20175;-68
2023/10/29 07:04:16;;;;;;;15.80;5.20;;;;;;;10.69;64.40;94955.06;5026727;28;20262;-68
2023/10/29 07:06:42;;;;;;;13.40;4.87;;;;;;;12.34;59.78;94944.34;5026655;28;20308;-68
2023/10/29 07:09:07;;;;;;;7.10;4.30;;;;;;;13.02;56.83;94933.97;5026816;28;20175;-68
2023/10/29 07:11:33;;;;;;;7.67;4.63;;;;;;;13.88;54.02;94925.44;5027993;28;20258;-68
2023/10/29 07:13:58;;;;;;;7.63;4.77;;;;;;;14.74;51.78;94918.41;5033175;28;20709;-69
2023/10/29 07:16:23;;;;;;;5.97;4.53;;;;;;;15.14;49.65;94914.16;5033597;28;20203;-68
2023/10/29 07:18:49;;;;;;;5.60;4.13;;;;;;;15.48;49.42;94924.50;5029592;28;20603;-69
2023/10/29 07:21:14;;;;;;;9.47;4.60;;;;;;;15.94;48.21;94933.69;5024673;28;20183;-68
2023/10/29 07:23:41;;;;;;;5.83;4.93;;;;;;;16.48;46.68;94938.47;5024376;28;20186;-68
2023/10/29 07:26:06;;;;;;;6.10;4.40;;;;;;;17.02;44.90;94936.25;5024932;28;20218;-69
2023/10/29 07:28:34;;;;;;;5.07;4.50;;;;;;;17.66;43.64;94931.16;5025094;28;20438;-68
2023/10/29 07:31:00;;;;;;;5.10;4.27;;;;;;;18.36;41.90;94942.94;5023815;28;20549;-68
2023/10/29 07:33:25;;;;;;;5.70;5.20;;;;;;;16.85;45.38;94937.81;5042971;28;20459;-69
2023/10/29 07:35:51;;;;;;;5.47;4.27;;;;;;;15.22;49.10;94964.56;5047067;28;20293;-68
2023/10/29 07:38:16;;;;;;;6.70;4.73;;;;;;;14.19;52.31;94959.88;5049280;28;20209;-69
2023/10/29 07:40:41;;;;;;;7.40;4.90;;;;;;;13.56;54.99;94967.56;5049264;28;20179;-68
2023/10/29 07:43:07;;;;;;;6.20;5.23;;;;;;;13.08;56.68;94975.63;5049183;28;20687;-68
2023/10/29 07:45:33;;;;;;;6.60;4.07;;;;;;;12.72;57.43;94982.72;5047618;28;20197;-69
2023/10/29 07:47:58;;;;;;;6.20;4.63;;;;;;;12.35;59.05;94980.19;5049184;28;20206;-69
2023/10/29 07:50:24;;;;;;;5.70;5.10;;;;;;;12.27;59.40;94979.94;5049039;28;20269;-68
2023/10/29 07:52:49;;;;;;;5.33;4.83;;;;;;;12.02;60.70;94970.34;5049095;28;20202;-67
2023/10/29 07:55:15;;;;;;;7.07;5.73;;;;;;;12.02;61.10;94978.25;5048964;28;20186;-69
2023/10/29 07:57:40;;;;;;;13.37;6.00;;;;;;;11.86;62.06;94973.25;5048741;28;20857;-68
2023/10/29 08:00:09;;;;;;;9.53;5.30;;;;;;;11.82;61.86;94984.91;5048921;28;20179;-68
2023/10/29 08:02:36;;;;;;;8.73;5.60;;;;;;;11.77;62.61;94981.78;5049138;28;20190;-69
2023/10/29 08:05:01;;;;;;;4.87;4.47;;;;;;;11.82;63.01;94966.50;5048528;28;20846;-69
2023/10/29 08:07:29;;;;;;;6.83;6.13;;;;;;;11.63;63.11;94985.38;5047959;28;20532;-68
2023/10/29 08:09:56;;;;;;;6.73;4.60;;;;;;;11.70;63.34;94965.59;5048218;28;20202;-69
2023/10/29 08:12:25;;;;;;;8.50;5.20;;;;;;;11.60;63.42;94981.19;5048552;28;20417;-69
2023/10/29 08:14:51;;;;;;;6.07;5.20;;;;;;;11.69;63.48;94986.72;5048353;28;20425;-69
2023/10/29 08:17:17;;;;;;;13.03;6.07;;;;;;;11.71;63.48;94993.53;5049131;28;20459;-69
2023/10/29 08:19:46;;;;;;;5.30;4.80;;;;;;;11.35;65.08;95020.63;5048788;28;20221;-69
2023/10/29 08:22:12;;;;;;;14.27;6.20;;;;;;;11.33;65.38;95006.75;5048719;28;21015;-70
2023/10/29 08:24:37;;;;;;;10.03;6.07;;;;;;;11.49;65.16;95012.63;5048131;28;20500;-69
2023/10/29 08:27:05;;;;;;;5.77;4.90;;;;;;;11.52;64.34;95027.31;5048472;28;20185;-68
2023/10/29 08:29:31;;;;;;;11.63;5.50;;;;;;;11.54;64.21;95018.38;5048154;28;20171;-69
2023/10/29 08:31:56;;;;;;;5.77;5.17;;;;;;;11.54;64.52;95020.19;5046733;28;20410;-69
2023/10/29 08:34:22;;;;;;;7.73;4.80;;;;;;;11.58;64.72;95029.53;5027657;28;20740;-68
2023/10/29 08:36:47;;;;;;;7.00;4.50;;;;;;;11.85;63.91;95039.88;5027634;28;20249;-68
2023/10/29 08:39:14;;;;;;;6.77;4.77;;;;;;;12.09;63.60;95032.06;5027876;28;20194;-69
2023/10/29 08:41:39;;;;;;;6.80;5.10;;;;;;;12.13;62.31;95044.06;5027894;28;20179;-69
2023/10/29 08:44:05;;;;;;;11.03;5.30;;;;;;;12.25;61.93;95023.91;5026692;28;20406;-69
2023/10/29 08:46:30;;;;;;;20.27;5.90;;;;;;;12.35;61.58;95021.44;5027731;28;20695;-69
2023/10/29 08:48:56;;;;;;;12.53;6.17;;;;;;;12.37;61.98;95015.13;5027632;28;20233;-69
2023/10/29 08:51:21;;;;;;;8.97;4.70;;;;;;;12.49;61.25;95021.28;5027688;28;20175;-69
2023/10/29 08:53:46;;;;;;;7.60;5.10;;;;;;;12.67;60.18;95001.50;5025850;28;20178;-69
2023/10/29 08:56:12;;;;;;;29.17;7.40;;;;;;;12.67;61.05;95006.75;5027753;28;20207;-69
2023/10/29 08:58:38;;;;;;;9.00;5.90;;;;;;;13.47;59.13;94994.63;5028395;28;20270;-68
2023/10/29 09:01:08;;;;;;;7.93;4.97;;;;;;;13.90;57.36;94991.25;5028036;28;21393;-68
2023/10/29 09:03:34;;;;;;;15.57;4.97;;;;;;;14.24;56.72;95007.00;5027465;28;20190;-68
2023/10/29 09:06:03;;;;;;;21.93;6.83;;;;;;;14.26;56.69;95010.34;5027284;28;20422;-69
2023/10/29 09:08:30;;;;;;;11.13;5.37;;;;;;;14.29;56.39;95018.00;5027919;28;20175;-69
2023/10/29 09:10:55;;;;;;;22.63;5.53;;;;;;;13.96;57.27;95019.75;5028461;28;20410;-68
2023/10/29 09:13:23;;;;;;;10.30;5.53;;;;;;;13.76;58.67;95010.78;5028824;28;20773;-68
2023/10/29 09:15:49;;;;;;;6.07;5.17;;;;;;;13.36;59.68;95023.59;5029778;28;20853;-68
2023/10/29 09:18:14;;;;;;;5.63;5.13;;;;;;;13.42;59.08;95023.16;5029786;28;20414;-68
2023/10/29 09:20:40;;;;;;;9.50;4.90;;;;;;;13.42;59.94;95023.16;5030342;28;20634;-68
2023/10/29 09:23:05;;;;;;;11.53;5.37;;;;;;;13.47;59.84;95016.53;5030356;28;20171;-68
2023/10/29 09:25:31;;;;;;;11.97;5.10;;;;;;;13.65;59.44;95008.97;5030283;28;20321;-67
2023/10/29 09:27:58;;;;;;;6.03;4.60;;;;;;;13.59;59.53;95008.66;5031317;28;20191;-68
2023/10/29 09:30:24;;;;;;;6.10;4.70;;;;;;;13.71;59.54;95010.31;5031550;28;20565;-69
2023/10/29 09:32:50;;;;;;;5.13;4.27;;;;;;;13.86;58.87;95005.63;5041389;28;20442;-68
2023/10/29 09:35:15;;;;;;;5.90;4.40;;;;;;;14.36;58.07;95011.28;5053094;28;20787;-69
2023/10/29 09:37:42;;;;;;;6.93;4.60;;;;;;;14.86;56.55;95010.75;5056553;28;20203;-68
2023/10/29 09:40:09;;;;;;;5.00;4.60;;;;;;;15.46;54.98;95023.25;5057730;28;20188;-67
2023/10/29 09:42:43;;;;;;;6.63;4.63;;;;;;;15.61;54.50;95031.72;5057143;28;20449;-67
2023/10/29 09:45:11;;;;;;;7.93;5.27;;;;;;;15.69;54.23;95027.56;5056006;28;20416;-70
2023/10/29 09:47:36;;;;;;;11.13;5.27;;;;;;;15.41;54.77;95020.19;5056545;28;20440;-70
2023/10/29 09:50:02;;;;;;;15.27;5.47;;;;;;;15.52;55.03;95026.34;5054881;28;20409;-69
2023/10/29 09:52:28;;;;;;;6.80;4.97;;;;;;;15.89;54.05;95013.47;5053136;28;20179;-68
2023/10/29 09:54:56;;;;;;;12.73;4.80;;;;;;;16.24;53.18;95007.72;5052873;28;20183;-67
2023/10/29 09:57:21;;;;;;;8.57;5.20;;;;;;;15.94;52.97;94998.00;5048069;28;20832;-68
2023/10/29 09:59:47;;;;;;;6.27;4.33;;;;;;;15.74;52.94;94998.94;5047542;28;20418;-67
2023/10/29 10:02:14;;;;;;;6.67;3.90;;;;;;;15.55;53.69;94987.28;5047444;28;20569;-68
2023/10/29 10:04:39;;;;;;;7.20;4.40;;;;;;;15.40;54.00;94988.56;5047784;28;20186;-69
2023/10/29 10:07:05;;;;;;;10.80;3.70;;;;;;;15.18;53.52;95000.97;5047954;28;20780;-68
2023/10/29 10:09:52;;;;;;;8.53;4.50;;;;;;;15.17;53.41;94998.47;5047781;28;21140;-68
2023/10/29 10:12:18;;;;;;;6.93;3.80;;;;;;;15.32;53.21;94996.34;5047488;28;20408;-68
2023/10/29 10:14:43;;;;;;;6.20;3.87;;;;;;;15.31;52.19;94999.97;5047254;28;20768;-70
2023/10/29 10:17:12;;;;;;;4.80;4.30;;;;;;;15.18;51.66;95000.97;5046944;28;20774;-69
2023/10/29 10:19:39;;;;;;;5.10;3.83;;;;;;;15.04;52.24;95012.69;5046791;28;20536;-69
2023/10/29 10:22:05;;;;;;;4.77;3.70;;;;;;;14.96;52.10;95012.53;5046844;28;20501;-68
2023/10/29 10:24:39;;;;;;;3.83;3.43;;;;;;;15.05;52.03;95021.50;5047208;28;21053;-69
2023/10/29 10:27:05;;;;;;;17.13;5.40;;;;;;;15.13;52.21;95028.75;5046767;28;20201;-70
2023/10/29 10:29:31;;;;;;;9.50;4.43;;;;;;;15.07;52.04;95023.97;5047099;28;20988;-70
2023/10/29 10:32:05;;;;;;;43.23;8.30;;;;;;;14.87;53.50;95013.28;5045874;28;20417;-69
2023/10/29 10:34:33;;;;;;;5.40;3.87;;;;;;;14.64;54.58;94995.88;5026947;28;20178;-71
2023/10/29 10:37:00;;;;;;;7.30;4.30;;;;;;;14.49;55.17;94987.38;5027493;28;20607;-70
2023/10/29 10:39:31;;;;;;;18.07;4.10;;;;;;;14.40;55.34;94978.41;5027046;28;20419;-68
2023/10/29 10:41:58;;;;;;;7.77;4.20;;;;;;;14.28;55.58;94976.78;5026695;28;20493;-69
2023/10/29 10:44:26;;;;;;;10.70;4.23;;;;;;;14.55;55.28;94965.78;5026444;28;20736;-70
2023/10/29 10:46:57;;;;;;;3.63;3.33;;;;;;;14.77;54.36;94970.13;5026292;28;20438;-70
2023/10/29 10:49:23;;;;;;;6.07;3.70;;;;;;;14.54;54.71;94972.84;5026364;28;21048;-69
2023/10/29 10:51:54;;;;;;;5.13;3.80;;;;;;;14.72;54.99;94973.16;5026357;28;20420;-70
2023/10/29 10:54:20;;;;;;;11.53;4.07;;;;;;;14.77;54.48;94983.34;5026207;28;20445;-70
2023/10/29 10:56:46;;;;;;;5.23;3.93;;;;;;;14.82;54.54;94974.03;5025183;28;20600;-70
2023/10/29 10:59:13;;;;;;;12.13;4.80;;;;;;;14.90;54.83;94976.03;5023630;28;20187;-69
2023/10/29 11:01:39;;;;;;;7.00;3.27;;;;;;;14.97;54.64;94968.44;5024415;28;20449;-69
2023/10/29 11:04:07;;;;;;;17.27;3.90;;;;;;;15.23;54.10;94982.09;5023899;28;20425;-69
2023/10/29 11:06:34;;;;;;;7.27;3.53;;;;;;;15.44;53.85;94979.41;5024080;28;20438;-68
2023/10/29 11:09:00;;;;;;;13.73;3.83;;;;;;;15.58;53.35;94962.38;5024095;28;20429;-71
2023/10/29 11:11:33;;;;;;;10.97;4.10;;;;;;;15.55;53.77;94954.72;5024038;28;20418;-69
2023/10/29 11:14:12;;;;;;;4.67;3.53;;;;;;;15.56;53.25;94951.09;5023771;28;20195;-69
2023/10/29 11:16:49;;;;;;;3.70;3.10;;;;;;;15.54;53.49;94947.72;5023981;28;20531;-70
2023/10/29 11:19:44;;;;;;;3.60;2.90;;;;;;;15.45;54.04;94960.78;5024075;28;20438;-68
2023/10/29 11:22:16;;;;;;;6.53;3.73;;;;;;;15.45;54.21;94947.56;5024321;28;20485;-68
2023/10/29 11:24:43;;;;;;;4.87;3.40;;;;;;;15.51;54.34;94953.28;5023521;28;20426;-69
2023/10/29 11:27:46;;;;;;;6.30;3.83;;;;;;;15.54;54.81;94966.25;5024298;28;20426;-69
2023/10/29 11:30:14;;;;;;;7.10;3.20;;;;;;;15.54;55.11;94953.03;5024042;28;20417;-70